Aviation Digital Data Service (ADDS)

Output produced by TAFs form (1411 UTC 24 April 2014)
found at http://aviationweather.gov/adds/tafs/
 
KGUP 241128Z 2412/2512 VRB06KT P6SM SKC 
     FM241800 25013KT P6SM SKC 
     FM250200 22006KT P6SM SCT250